sensor_id;sensor_type;location;lat;lon;timestamp;pressure;altitude;pressure_sealevel;temperature;humidity
10638;BME280;47007;49.252;8.904;2022-09-17T00:01:22;99421.91;;;10.89;100.00
10638;BME280;47007;49.252;8.904;2022-09-17T00:03:52;99453.81;;;11.02;100.00
10638;BME280;47007;49.252;8.904;2022-09-17T00:06:20;99444.56;;;10.85;100.00
10638;BME280;47007;49.252;8.904;2022-09-17T00:08:47;99453.88;;;10.80;100.00
10638;BME280;47007;49.252;8.904;2022-09-17T00:11:17;99469.63;;;10.89;100.00
10638;BME280;47007;49.252;8.904;2022-09-17T00:13:48;99437.53;;;10.77;100.00
10638;BME280;47007;49.252;8.904;2022-09-17T00:16:26;99460.75;;;10.96;100.00
10638;BME280;47007;49.252;8.904;2022-09-17T00:18:54;99449.88;;;10.91;100.00
10638;BME280;47007;49.252;8.904;2022-09-17T00:21:21;99475.03;;;11.02;100.00
10638;BME280;47007;49.252;8.904;2022-09-17T00:23:52;99444.50;;;10.78;100.00
10638;BME280;47007;49.252;8.904;2022-09-17T00:26:19;99465.41;;;10.94;100.00
10638;BME280;47007;49.252;8.904;2022-09-17T00:28:51;99421.91;;;10.54;100.00
10638;BME280;47007;49.252;8.904;2022-09-17T00:31:18;99472.16;;;10.69;100.00
10638;BME280;47007;49.252;8.904;2022-09-17T00:33:45;99415.81;;;10.32;100.00
10638;BME280;47007;49.252;8.904;2022-09-17T00:36:12;99450.63;;;10.51;100.00
10638;BME280;47007;49.252;8.904;2022-09-17T00:38:38;99464.78;;;10.64;100.00
10638;BME280;47007;49.252;8.904;2022-09-17T00:41:06;99453.50;;;10.56;100.00
10638;BME280;47007;49.252;8.904;2022-09-17T00:46:59;99467.53;;;10.77;100.00
10638;BME280;47007;49.252;8.904;2022-09-17T00:49:28;99473.66;;;10.78;100.00
10638;BME280;47007;49.252;8.904;2022-09-17T00:52:11;99470.97;;;10.71;100.00
10638;BME280;47007;49.252;8.904;2022-09-17T00:54:43;99469.84;;;10.59;100.00
10638;BME280;47007;49.252;8.904;2022-09-17T00:57:11;99477.00;;;10.65;100.00
10638;BME280;47007;49.252;8.904;2022-09-17T00:59:38;99433.28;;;10.27;100.00
10638;BME280;47007;49.252;8.904;2022-09-17T01:02:05;99481.59;;;10.50;100.00
10638;BME280;47007;49.252;8.904;2022-09-17T01:04:32;99485.00;;;10.44;100.00
10638;BME280;47007;49.252;8.904;2022-09-17T01:09:52;99473.41;;;10.45;100.00
10638;BME280;47007;49.252;8.904;2022-09-17T01:15:21;99484.56;;;10.62;100.00
10638;BME280;47007;49.252;8.904;2022-09-17T01:23:42;99487.19;;;10.40;100.00
10638;BME280;47007;49.252;8.904;2022-09-17T01:28:46;99485.06;;;10.51;100.00
10638;BME280;47007;49.252;8.904;2022-09-17T01:34:31;99466.28;;;10.24;100.00
10638;BME280;47007;49.252;8.904;2022-09-17T01:37:06;99483.22;;;10.30;100.00
10638;BME280;47007;49.252;8.904;2022-09-17T01:39:51;99475.38;;;10.36;100.00
10638;BME280;47007;49.252;8.904;2022-09-17T01:42:36;99484.00;;;10.45;100.00
10638;BME280;47007;49.252;8.904;2022-09-17T01:45:14;99416.38;;;10.06;100.00
10638;BME280;47007;49.252;8.904;2022-09-17T01:47:43;99488.84;;;10.63;100.00
10638;BME280;47007;49.252;8.904;2022-09-17T01:50:17;99493.63;;;10.74;100.00
10638;BME280;47007;49.252;8.904;2022-09-17T01:52:48;99494.09;;;10.84;100.00
10638;BME280;47007;49.252;8.904;2022-09-17T01:55:17;99491.63;;;10.83;100.00
10638;BME280;47007;49.252;8.904;2022-09-17T01:57:55;99484.69;;;10.82;100.00
10638;BME280;47007;49.252;8.904;2022-09-17T02:00:23;99468.06;;;10.66;100.00
10638;BME280;47007;49.252;8.904;2022-09-17T02:03:03;99495.34;;;10.88;100.00
10638;BME280;47007;49.252;8.904;2022-09-17T02:05:42;99483.97;;;10.94;100.00
10638;BME280;47007;49.252;8.904;2022-09-17T02:08:22;99494.56;;;10.94;100.00
10638;BME280;47007;49.252;8.904;2022-09-17T02:10:55;99488.78;;;10.84;100.00
10638;BME280;47007;49.252;8.904;2022-09-17T02:16:04;99445.69;;;10.26;100.00
10638;BME280;47007;49.252;8.904;2022-09-17T02:18:48;99474.59;;;10.42;100.00
10638;BME280;47007;49.252;8.904;2022-09-17T02:26:38;99499.38;;;10.35;100.00
10638;BME280;47007;49.252;8.904;2022-09-17T02:29:13;99496.47;;;10.30;100.00
10638;BME280;47007;49.252;8.904;2022-09-17T02:31:43;99487.28;;;10.26;100.00
10638;BME280;47007;49.252;8.904;2022-09-17T02:34:10;99460.38;;;10.07;100.00
10638;BME280;47007;49.252;8.904;2022-09-17T02:36:36;99491.56;;;10.27;100.00
10638;BME280;47007;49.252;8.904;2022-09-17T02:39:03;99506.19;;;10.23;100.00
10638;BME280;47007;49.252;8.904;2022-09-17T02:41:39;99483.56;;;10.20;100.00
10638;BME280;47007;49.252;8.904;2022-09-17T02:52:56;99484.66;;;10.11;100.00
10638;BME280;47007;49.252;8.904;2022-09-17T02:58:31;99492.41;;;10.13;100.00
10638;BME280;47007;49.252;8.904;2022-09-17T03:01:06;99481.38;;;10.09;100.00
10638;BME280;47007;49.252;8.904;2022-09-17T03:03:43;99488.94;;;10.12;100.00
10638;BME280;47007;49.252;8.904;2022-09-17T03:06:12;99507.84;;;10.09;100.00
10638;BME280;47007;49.252;8.904;2022-09-17T03:08:40;99511.41;;;10.01;100.00
10638;BME280;47007;49.252;8.904;2022-09-17T03:11:09;99508.59;;;10.03;100.00
10638;BME280;47007;49.252;8.904;2022-09-17T03:13:45;99497.31;;;9.94;100.00
10638;BME280;47007;49.252;8.904;2022-09-17T03:16:12;99477.56;;;9.76;100.00
10638;BME280;47007;49.252;8.904;2022-09-17T03:18:39;99478.38;;;9.76;100.00
10638;BME280;47007;49.252;8.904;2022-09-17T03:21:05;99493.97;;;9.86;100.00
10638;BME280;47007;49.252;8.904;2022-09-17T03:23:32;99483.84;;;9.75;100.00
10638;BME280;47007;49.252;8.904;2022-09-17T03:25:59;99512.22;;;9.81;100.00
10638;BME280;47007;49.252;8.904;2022-09-17T03:28:26;99505.91;;;9.82;100.00
10638;BME280;47007;49.252;8.904;2022-09-17T03:30:53;99434.75;;;9.36;100.00
10638;BME280;47007;49.252;8.904;2022-09-17T03:33:20;99502.44;;;9.81;100.00
10638;BME280;47007;49.252;8.904;2022-09-17T03:35:47;99521.06;;;9.88;100.00
10638;BME280;47007;49.252;8.904;2022-09-17T03:38:14;99513.38;;;9.93;100.00
10638;BME280;47007;49.252;8.904;2022-09-17T03:40:40;99482.56;;;9.85;100.00
10638;BME280;47007;49.252;8.904;2022-09-17T03:43:07;99519.91;;;10.12;100.00
10638;BME280;47007;49.252;8.904;2022-09-17T03:45:34;99513.34;;;10.07;100.00
10638;BME280;47007;49.252;8.904;2022-09-17T03:48:01;99518.09;;;10.12;100.00
10638;BME280;47007;49.252;8.904;2022-09-17T03:50:28;99506.66;;;10.12;100.00
10638;BME280;47007;49.252;8.904;2022-09-17T03:52:54;99511.78;;;10.13;100.00
10638;BME280;47007;49.252;8.904;2022-09-17T03:55:21;99492.28;;;9.99;100.00
10638;BME280;47007;49.252;8.904;2022-09-17T03:57:47;99484.75;;;9.82;100.00
10638;BME280;47007;49.252;8.904;2022-09-17T04:00:14;99528.06;;;9.95;100.00
10638;BME280;47007;49.252;8.904;2022-09-17T04:02:43;99528.25;;;9.94;100.00
10638;BME280;47007;49.252;8.904;2022-09-17T04:05:09;99519.66;;;9.92;100.00
10638;BME280;47007;49.252;8.904;2022-09-17T04:07:38;99529.84;;;9.88;100.00
10638;BME280;47007;49.252;8.904;2022-09-17T04:10:06;99523.63;;;9.81;100.00
10638;BME280;47007;49.252;8.904;2022-09-17T04:12:32;99525.25;;;9.82;100.00
10638;BME280;47007;49.252;8.904;2022-09-17T04:14:59;99515.31;;;9.84;100.00
10638;BME280;47007;49.252;8.904;2022-09-17T04:17:26;99522.56;;;9.76;100.00
10638;BME280;47007;49.252;8.904;2022-09-17T04:19:53;99536.13;;;9.87;100.00
10638;BME280;47007;49.252;8.904;2022-09-17T04:22:20;99527.72;;;9.84;100.00
10638;BME280;47007;49.252;8.904;2022-09-17T04:24:47;99529.19;;;9.86;100.00
10638;BME280;47007;49.252;8.904;2022-09-17T04:27:13;99523.09;;;9.71;100.00
10638;BME280;47007;49.252;8.904;2022-09-17T04:29:40;99454.16;;;9.43;100.00
10638;BME280;47007;49.252;8.904;2022-09-17T04:32:07;99500.28;;;9.70;100.00
10638;BME280;47007;49.252;8.904;2022-09-17T04:34:34;99531.38;;;9.83;100.00
10638;BME280;47007;49.252;8.904;2022-09-17T04:37:00;99535.66;;;9.84;100.00
10638;BME280;47007;49.252;8.904;2022-09-17T04:39:27;99541.31;;;9.81;100.00
10638;BME280;47007;49.252;8.904;2022-09-17T04:41:54;99533.03;;;9.84;100.00
10638;BME280;47007;49.252;8.904;2022-09-17T04:44:20;99531.22;;;9.69;100.00
10638;BME280;47007;49.252;8.904;2022-09-17T04:46:47;99519.63;;;9.70;100.00
10638;BME280;47007;49.252;8.904;2022-09-17T04:49:14;99535.03;;;9.82;100.00
10638;BME280;47007;49.252;8.904;2022-09-17T04:51:40;99436.59;;;9.21;100.00
10638;BME280;47007;49.252;8.904;2022-09-17T04:54:07;99515.69;;;9.66;100.00
10638;BME280;47007;49.252;8.904;2022-09-17T04:56:34;99542.72;;;9.77;100.00
10638;BME280;47007;49.252;8.904;2022-09-17T04:59:00;99545.72;;;9.88;100.00
10638;BME280;47007;49.252;8.904;2022-09-17T05:01:27;99542.03;;;9.89;100.00
10638;BME280;47007;49.252;8.904;2022-09-17T05:04:02;99546.97;;;9.92;100.00
10638;BME280;47007;49.252;8.904;2022-09-17T05:06:29;99554.72;;;9.94;100.00
10638;BME280;47007;49.252;8.904;2022-09-17T05:08:55;99561.03;;;9.93;100.00
10638;BME280;47007;49.252;8.904;2022-09-17T05:11:22;99485.88;;;9.58;100.00
10638;BME280;47007;49.252;8.904;2022-09-17T05:13:48;99528.47;;;9.78;100.00
10638;BME280;47007;49.252;8.904;2022-09-17T05:16:15;99547.06;;;9.99;100.00
10638;BME280;47007;49.252;8.904;2022-09-17T05:18:42;99576.25;;;10.05;100.00
10638;BME280;47007;49.252;8.904;2022-09-17T05:21:09;99486.34;;;9.61;100.00
10638;BME280;47007;49.252;8.904;2022-09-17T05:23:35;99561.53;;;10.03;100.00
10638;BME280;47007;49.252;8.904;2022-09-17T05:26:02;99566.28;;;10.07;100.00
10638;BME280;47007;49.252;8.904;2022-09-17T05:28:29;99565.94;;;10.11;100.00
10638;BME280;47007;49.252;8.904;2022-09-17T05:30:59;99570.03;;;10.13;100.00
10638;BME280;47007;49.252;8.904;2022-09-17T05:33:26;99574.88;;;10.09;100.00
10638;BME280;47007;49.252;8.904;2022-09-17T05:35:53;99485.66;;;9.38;100.00
10638;BME280;47007;49.252;8.904;2022-09-17T05:38:20;99512.06;;;9.67;100.00
10638;BME280;47007;49.252;8.904;2022-09-17T05:40:47;99523.63;;;9.81;100.00
10638;BME280;47007;49.252;8.904;2022-09-17T05:43:14;99534.56;;;9.93;100.00
10638;BME280;47007;49.252;8.904;2022-09-17T05:45:41;99552.78;;;10.02;100.00
10638;BME280;47007;49.252;8.904;2022-09-17T05:48:12;99573.88;;;10.11;100.00
10638;BME280;47007;49.252;8.904;2022-09-17T05:50:39;99594.78;;;10.20;100.00
10638;BME280;47007;49.252;8.904;2022-09-17T05:53:09;99558.47;;;9.99;100.00
10638;BME280;47007;49.252;8.904;2022-09-17T05:55:38;99454.56;;;9.25;100.00
10638;BME280;47007;49.252;8.904;2022-09-17T06:00:37;99580.38;;;9.79;100.00
10638;BME280;47007;49.252;8.904;2022-09-17T06:03:04;99572.56;;;9.70;100.00
10638;BME280;47007;49.252;8.904;2022-09-17T06:05:31;99567.91;;;9.58;100.00
10638;BME280;47007;49.252;8.904;2022-09-17T06:07:57;99563.16;;;9.53;100.00
10638;BME280;47007;49.252;8.904;2022-09-17T06:10:24;99540.81;;;9.41;100.00
10638;BME280;47007;49.252;8.904;2022-09-17T06:12:57;99574.38;;;9.55;100.00
10638;BME280;47007;49.252;8.904;2022-09-17T06:15:25;99503.97;;;9.10;100.00
10638;BME280;47007;49.252;8.904;2022-09-17T06:17:52;99502.84;;;9.05;100.00
10638;BME280;47007;49.252;8.904;2022-09-17T06:20:19;99619.81;;;9.59;100.00
10638;BME280;47007;49.252;8.904;2022-09-17T06:22:46;99583.69;;;9.36;100.00
10638;BME280;47007;49.252;8.904;2022-09-17T06:25:13;99573.72;;;9.24;100.00
10638;BME280;47007;49.252;8.904;2022-09-17T06:27:40;99587.88;;;9.31;100.00
10638;BME280;47007;49.252;8.904;2022-09-17T06:30:07;99629.06;;;9.63;100.00
10638;BME280;47007;49.252;8.904;2022-09-17T06:32:34;99575.44;;;9.17;100.00
10638;BME280;47007;49.252;8.904;2022-09-17T06:35:00;99469.41;;;8.45;100.00
10638;BME280;47007;49.252;8.904;2022-09-17T06:37:31;99634.53;;;9.61;100.00
10638;BME280;47007;49.252;8.904;2022-09-17T06:39:58;99629.06;;;9.63;100.00
10638;BME280;47007;49.252;8.904;2022-09-17T06:42:25;99573.63;;;9.32;100.00
10638;BME280;47007;49.252;8.904;2022-09-17T06:44:54;99617.53;;;9.70;100.00
10638;BME280;47007;49.252;8.904;2022-09-17T06:47:26;99626.50;;;9.99;100.00
10638;BME280;47007;49.252;8.904;2022-09-17T06:49:53;99638.06;;;10.13;100.00
10638;BME280;47007;49.252;8.904;2022-09-17T06:52:22;99635.88;;;10.31;100.00
10638;BME280;47007;49.252;8.904;2022-09-17T06:54:49;99548.53;;;9.87;100.00
10638;BME280;47007;49.252;8.904;2022-09-17T06:57:15;99635.56;;;10.40;100.00
10638;BME280;47007;49.252;8.904;2022-09-17T06:59:42;99565.47;;;10.07;100.00
10638;BME280;47007;49.252;8.904;2022-09-17T07:02:09;99564.09;;;10.26;100.00
10638;BME280;47007;49.252;8.904;2022-09-17T07:04:35;99633.53;;;10.78;100.00
10638;BME280;47007;49.252;8.904;2022-09-17T07:07:02;99622.38;;;10.62;100.00
10638;BME280;47007;49.252;8.904;2022-09-17T07:09:30;99617.94;;;10.69;100.00
10638;BME280;47007;49.252;8.904;2022-09-17T07:11:57;99635.34;;;10.78;100.00
10638;BME280;47007;49.252;8.904;2022-09-17T07:14:24;99632.78;;;10.85;100.00
10638;BME280;47007;49.252;8.904;2022-09-17T07:16:51;99629.69;;;10.81;100.00
10638;BME280;47007;49.252;8.904;2022-09-17T07:19:18;99629.28;;;11.05;100.00
10638;BME280;47007;49.252;8.904;2022-09-17T07:21:47;99626.59;;;10.99;100.00
10638;BME280;47007;49.252;8.904;2022-09-17T07:24:14;99613.91;;;10.94;100.00
10638;BME280;47007;49.252;8.904;2022-09-17T07:26:40;99643.69;;;11.18;100.00
10638;BME280;47007;49.252;8.904;2022-09-17T07:29:07;99643.50;;;11.19;100.00
10638;BME280;47007;49.252;8.904;2022-09-17T07:31:34;99648.06;;;11.04;100.00
10638;BME280;47007;49.252;8.904;2022-09-17T07:34:00;99654.19;;;11.04;100.00
10638;BME280;47007;49.252;8.904;2022-09-17T07:36:27;99640.69;;;10.99;100.00
10638;BME280;47007;49.252;8.904;2022-09-17T07:38:53;99666.66;;;10.89;100.00
10638;BME280;47007;49.252;8.904;2022-09-17T07:41:20;99651.72;;;11.03;100.00
10638;BME280;47007;49.252;8.904;2022-09-17T07:43:47;99656.56;;;11.21;100.00
10638;BME280;47007;49.252;8.904;2022-09-17T07:46:16;99595.34;;;10.94;100.00
10638;BME280;47007;49.252;8.904;2022-09-17T07:48:46;99659.97;;;11.36;100.00
10638;BME280;47007;49.252;8.904;2022-09-17T07:51:21;99649.84;;;11.46;100.00
10638;BME280;47007;49.252;8.904;2022-09-17T07:53:52;99645.53;;;11.45;100.00
10638;BME280;47007;49.252;8.904;2022-09-17T07:56:20;99636.59;;;11.52;100.00
10638;BME280;47007;49.252;8.904;2022-09-17T07:58:49;99653.56;;;11.79;100.00
10638;BME280;47007;49.252;8.904;2022-09-17T08:01:16;99588.56;;;11.75;100.00
10638;BME280;47007;49.252;8.904;2022-09-17T08:03:48;99564.81;;;11.67;100.00
10638;BME280;47007;49.252;8.904;2022-09-17T08:06:18;99656.06;;;12.22;100.00
10638;BME280;47007;49.252;8.904;2022-09-17T08:08:45;99652.78;;;12.20;100.00
10638;BME280;47007;49.252;8.904;2022-09-17T08:11:14;99660.03;;;11.98;100.00
10638;BME280;47007;49.252;8.904;2022-09-17T08:13:58;99609.69;;;11.56;100.00
10638;BME280;47007;49.252;8.904;2022-09-17T08:16:25;99624.19;;;11.87;100.00
10638;BME280;47007;49.252;8.904;2022-09-17T08:18:56;99658.28;;;12.25;100.00
10638;BME280;47007;49.252;8.904;2022-09-17T08:21:23;99637.38;;;12.09;100.00
10638;BME280;47007;49.252;8.904;2022-09-17T08:23:49;99671.00;;;12.30;100.00
10638;BME280;47007;49.252;8.904;2022-09-17T08:26:18;99662.00;;;12.31;100.00
10638;BME280;47007;49.252;8.904;2022-09-17T08:28:51;99668.59;;;12.41;100.00
10638;BME280;47007;49.252;8.904;2022-09-17T08:31:22;99659.25;;;12.58;100.00
10638;BME280;47007;49.252;8.904;2022-09-17T08:33:49;99667.88;;;12.67;100.00
10638;BME280;47007;49.252;8.904;2022-09-17T08:36:17;99655.09;;;12.43;100.00
10638;BME280;47007;49.252;8.904;2022-09-17T08:38:44;99676.38;;;12.43;100.00
10638;BME280;47007;49.252;8.904;2022-09-17T08:44:26;99668.22;;;12.51;100.00
10638;BME280;47007;49.252;8.904;2022-09-17T08:46:59;99665.50;;;12.38;100.00
10638;BME280;47007;49.252;8.904;2022-09-17T08:52:25;99674.88;;;12.27;100.00
10638;BME280;47007;49.252;8.904;2022-09-17T08:58:40;99671.75;;;12.17;100.00
10638;BME280;47007;49.252;8.904;2022-09-17T09:06:48;99658.19;;;12.53;100.00
10638;BME280;47007;49.252;8.904;2022-09-17T09:09:19;99654.47;;;13.15;100.00
10638;BME280;47007;49.252;8.904;2022-09-17T09:11:48;99664.09;;;13.36;100.00
10638;BME280;47007;49.252;8.904;2022-09-17T09:14:27;99668.81;;;13.20;100.00
10638;BME280;47007;49.252;8.904;2022-09-17T09:16:58;99657.47;;;12.99;100.00
10638;BME280;47007;49.252;8.904;2022-09-17T09:19:40;99651.78;;;12.95;100.00
10638;BME280;47007;49.252;8.904;2022-09-17T09:25:22;99654.06;;;13.24;100.00
10638;BME280;47007;49.252;8.904;2022-09-17T09:28:11;99663.84;;;13.04;100.00
10638;BME280;47007;49.252;8.904;2022-09-17T09:31:12;99655.63;;;12.86;100.00
10638;BME280;47007;49.252;8.904;2022-09-17T09:33:43;99656.25;;;13.01;100.00
10638;BME280;47007;49.252;8.904;2022-09-17T09:36:14;99647.31;;;13.42;100.00
10638;BME280;47007;49.252;8.904;2022-09-17T09:38:45;99644.22;;;13.71;100.00
10638;BME280;47007;49.252;8.904;2022-09-17T09:41:51;99635.94;;;14.06;100.00
10638;BME280;47007;49.252;8.904;2022-09-17T09:44:19;99633.38;;;14.24;100.00
10638;BME280;47007;49.252;8.904;2022-09-17T09:49:28;99622.13;;;14.66;100.00
10638;BME280;47007;49.252;8.904;2022-09-17T09:52:27;99622.78;;;14.11;100.00
10638;BME280;47007;49.252;8.904;2022-09-17T09:57:49;99623.97;;;13.57;100.00
10638;BME280;47007;49.252;8.904;2022-09-17T10:00:25;99622.25;;;13.76;100.00
10638;BME280;47007;49.252;8.904;2022-09-17T10:05:27;99615.97;;;16.08;100.00
10638;BME280;47007;49.252;8.904;2022-09-17T10:08:16;99591.16;;;16.20;100.00
10638;BME280;47007;49.252;8.904;2022-09-17T10:10:54;99600.88;;;15.59;100.00
10638;BME280;47007;49.252;8.904;2022-09-17T10:13:22;99596.31;;;14.60;100.00
10638;BME280;47007;49.252;8.904;2022-09-17T10:15:49;99612.84;;;14.44;100.00
10638;BME280;47007;49.252;8.904;2022-09-17T10:18:18;99581.34;;;14.21;100.00
10638;BME280;47007;49.252;8.904;2022-09-17T10:21:03;99615.09;;;14.41;100.00
10638;BME280;47007;49.252;8.904;2022-09-17T10:23:35;99582.59;;;14.12;100.00
10638;BME280;47007;49.252;8.904;2022-09-17T10:26:05;99633.88;;;14.08;100.00
10638;BME280;47007;49.252;8.904;2022-09-17T10:28:36;99629.41;;;13.88;100.00
10638;BME280;47007;49.252;8.904;2022-09-17T10:31:08;99614.53;;;13.54;100.00
10638;BME280;47007;49.252;8.904;2022-09-17T10:36:16;99586.63;;;15.22;100.00
10638;BME280;47007;49.252;8.904;2022-09-17T10:39:32;99600.06;;;16.32;100.00
10638;BME280;47007;49.252;8.904;2022-09-17T10:44:37;99592.31;;;16.72;100.00
10638;BME280;47007;49.252;8.904;2022-09-17T10:47:12;99587.78;;;17.37;100.00
10638;BME280;47007;49.252;8.904;2022-09-17T10:50:06;99567.06;;;16.68;100.00
10638;BME280;47007;49.252;8.904;2022-09-17T10:52:46;99590.69;;;16.41;100.00
10638;BME280;47007;49.252;8.904;2022-09-17T11:17:10;99568.66;;;14.10;100.00
10638;BME280;47007;49.252;8.904;2022-09-17T11:28:00;99563.88;;;15.63;100.00
10638;BME280;47007;49.252;8.904;2022-09-17T11:30:43;99563.56;;;15.71;100.00
10638;BME280;47007;49.252;8.904;2022-09-17T11:35:48;99511.16;;;15.08;100.00
10638;BME280;47007;49.252;8.904;2022-09-17T11:38:39;99549.28;;;15.40;100.00
10638;BME280;47007;49.252;8.904;2022-09-17T11:41:54;99548.88;;;15.62;100.00
10638;BME280;47007;49.252;8.904;2022-09-17T11:47:01;99557.31;;;16.13;100.00
10638;BME280;47007;49.252;8.904;2022-09-17T11:49:38;99568.63;;;16.99;100.00
10638;BME280;47007;49.252;8.904;2022-09-17T11:52:10;99579.31;;;16.75;100.00
10638;BME280;47007;49.252;8.904;2022-09-17T11:54:44;99580.41;;;16.56;100.00
10638;BME280;47007;49.252;8.904;2022-09-17T11:57:15;99594.03;;;16.36;100.00
10638;BME280;47007;49.252;8.904;2022-09-17T11:59:51;99591.78;;;16.03;94.89
10638;BME280;47007;49.252;8.904;2022-09-17T12:02:29;99599.59;;;16.05;100.00
10638;BME280;47007;49.252;8.904;2022-09-17T12:05:13;99609.97;;;15.95;100.00
10638;BME280;47007;49.252;8.904;2022-09-17T12:07:47;99591.94;;;15.90;100.00
10638;BME280;47007;49.252;8.904;2022-09-17T12:12:49;99548.50;;;15.95;91.29
10638;BME280;47007;49.252;8.904;2022-09-17T12:15:23;99582.34;;;16.79;93.36
10638;BME280;47007;49.252;8.904;2022-09-17T12:21:00;99592.44;;;17.53;82.59
10638;BME280;47007;49.252;8.904;2022-09-17T12:39:12;99559.22;;;17.54;81.72
10638;BME280;47007;49.252;8.904;2022-09-17T12:41:40;99549.59;;;17.30;82.40
10638;BME280;47007;49.252;8.904;2022-09-17T13:00:37;99554.72;;;18.63;73.24
10638;BME280;47007;49.252;8.904;2022-09-17T13:06:01;99555.75;;;18.06;79.74
10638;BME280;47007;49.252;8.904;2022-09-17T13:14:08;99558.97;;;16.98;82.40
10638;BME280;47007;49.252;8.904;2022-09-17T13:16:44;99541.03;;;16.86;79.56
10638;BME280;47007;49.252;8.904;2022-09-17T13:22:03;99557.94;;;16.99;81.86
10638;BME280;47007;49.252;8.904;2022-09-17T13:24:32;99546.88;;;17.18;83.98
10638;BME280;47007;49.252;8.904;2022-09-17T13:27:01;99510.69;;;16.93;83.44
10638;BME280;47007;49.252;8.904;2022-09-17T13:37:41;99538.66;;;16.37;94.38
10638;BME280;47007;49.252;8.904;2022-09-17T13:40:24;99537.00;;;16.24;97.31
10638;BME280;47007;49.252;8.904;2022-09-17T13:42:56;99540.44;;;16.13;91.52
10638;BME280;47007;49.252;8.904;2022-09-17T13:45:24;99543.25;;;16.48;91.84
10638;BME280;47007;49.252;8.904;2022-09-17T13:48:07;99540.72;;;16.53;96.96
10638;BME280;47007;49.252;8.904;2022-09-17T13:50:37;99548.03;;;16.58;99.96
10638;BME280;47007;49.252;8.904;2022-09-17T13:55:50;99543.00;;;16.68;94.75
10638;BME280;47007;49.252;8.904;2022-09-17T14:00:56;99554.78;;;17.02;92.03
10638;BME280;47007;49.252;8.904;2022-09-17T14:05:54;99501.69;;;17.10;86.70
10638;BME280;47007;49.252;8.904;2022-09-17T14:22:16;99524.84;;;18.15;84.58
10638;BME280;47007;49.252;8.904;2022-09-17T14:24:48;99530.81;;;17.65;86.68
10638;BME280;47007;49.252;8.904;2022-09-17T14:35:21;99514.50;;;17.20;97.63
10638;BME280;47007;49.252;8.904;2022-09-17T14:37:55;99520.56;;;17.15;100.00
10638;BME280;47007;49.252;8.904;2022-09-17T14:40:25;99508.16;;;16.56;100.00
10638;BME280;47007;49.252;8.904;2022-09-17T14:42:54;99506.34;;;16.08;100.00
10638;BME280;47007;49.252;8.904;2022-09-17T14:45:32;99502.59;;;16.28;100.00
10638;BME280;47007;49.252;8.904;2022-09-17T14:48:33;99503.59;;;16.15;100.00
10638;BME280;47007;49.252;8.904;2022-09-17T14:59:23;99487.13;;;17.41;84.21
10638;BME280;47007;49.252;8.904;2022-09-17T15:01:51;99465.59;;;17.36;82.42
10638;BME280;47007;49.252;8.904;2022-09-17T15:04:24;99520.16;;;17.82;84.33
10638;BME280;47007;49.252;8.904;2022-09-17T15:06:52;99517.50;;;17.58;81.36
10638;BME280;47007;49.252;8.904;2022-09-17T15:09:24;99531.13;;;17.69;80.89
10638;BME280;47007;49.252;8.904;2022-09-17T15:11:53;99502.81;;;17.73;79.03
10638;BME280;47007;49.252;8.904;2022-09-17T15:14:25;99520.31;;;17.52;81.21
10638;BME280;47007;49.252;8.904;2022-09-17T15:16:55;99520.91;;;17.42;82.77
10638;BME280;47007;49.252;8.904;2022-09-17T15:19:29;99518.25;;;17.31;81.54
10638;BME280;47007;49.252;8.904;2022-09-17T15:22:04;99499.03;;;17.22;84.79
10638;BME280;47007;49.252;8.904;2022-09-17T15:27:11;99492.03;;;16.74;87.83
10638;BME280;47007;49.252;8.904;2022-09-17T15:29:42;99478.00;;;16.49;91.79
10638;BME280;47007;49.252;8.904;2022-09-17T15:32:12;99505.13;;;16.23;95.55
10638;BME280;47007;49.252;8.904;2022-09-17T15:35:27;99510.84;;;15.96;98.58
10638;BME280;47007;49.252;8.904;2022-09-17T15:38:00;99514.75;;;15.82;100.00
10638;BME280;47007;49.252;8.904;2022-09-17T15:40:48;99505.97;;;15.75;99.55
10638;BME280;47007;49.252;8.904;2022-09-17T15:43:31;99513.75;;;15.76;95.31
10638;BME280;47007;49.252;8.904;2022-09-17T15:48:56;99521.06;;;15.69;93.41
10638;BME280;47007;49.252;8.904;2022-09-17T15:51:35;99519.31;;;15.75;92.18
10638;BME280;47007;49.252;8.904;2022-09-17T15:54:04;99505.16;;;15.74;94.16
10638;BME280;47007;49.252;8.904;2022-09-17T15:56:37;99515.13;;;15.67;94.62
10638;BME280;47007;49.252;8.904;2022-09-17T15:59:29;99514.94;;;15.62;99.15
10638;BME280;47007;49.252;8.904;2022-09-17T16:01:59;99475.03;;;15.31;100.00
10638;BME280;47007;49.252;8.904;2022-09-17T16:04:31;99533.13;;;15.54;100.00
10638;BME280;47007;49.252;8.904;2022-09-17T16:07:28;99536.78;;;15.34;100.00
10638;BME280;47007;49.252;8.904;2022-09-17T16:09:55;99517.41;;;15.02;100.00
10638;BME280;47007;49.252;8.904;2022-09-17T16:12:26;99510.31;;;14.90;100.00
10638;BME280;47007;49.252;8.904;2022-09-17T16:14:56;99554.13;;;15.07;100.00
10638;BME280;47007;49.252;8.904;2022-09-17T16:17:32;99546.94;;;15.07;100.00
10638;BME280;47007;49.252;8.904;2022-09-17T16:20:20;99546.47;;;15.10;100.00
10638;BME280;47007;49.252;8.904;2022-09-17T16:22:50;99555.38;;;15.04;100.00
10638;BME280;47007;49.252;8.904;2022-09-17T16:25:21;99541.13;;;15.10;100.00
10638;BME280;47007;49.252;8.904;2022-09-17T16:30:21;99556.06;;;15.18;100.00
10638;BME280;47007;49.252;8.904;2022-09-17T16:32:49;99564.28;;;15.17;99.35
10638;BME280;47007;49.252;8.904;2022-09-17T16:35:18;99565.53;;;15.14;97.83
10638;BME280;47007;49.252;8.904;2022-09-17T16:37:51;99566.03;;;15.04;97.99
10638;BME280;47007;49.252;8.904;2022-09-17T16:40:20;99552.47;;;14.81;99.73
10638;BME280;47007;49.252;8.904;2022-09-17T16:42:48;99561.63;;;14.92;100.00
10638;BME280;47007;49.252;8.904;2022-09-17T16:45:18;99560.69;;;14.80;100.00
10638;BME280;47007;49.252;8.904;2022-09-17T16:47:45;99575.56;;;14.94;100.00
10638;BME280;47007;49.252;8.904;2022-09-17T16:50:15;99579.78;;;14.77;100.00